createdAt,value
2023-09-06T00:01:26.686Z,100.00
2023-09-06T00:03:57.239Z,100.00
2023-09-06T00:06:29.427Z,100.00
2023-09-06T00:08:58.379Z,100.00
2023-09-06T00:11:29.284Z,100.00
2023-09-06T00:13:58.778Z,100.00
2023-09-06T00:16:28.385Z,100.00
2023-09-06T00:19:00.817Z,100.00
2023-09-06T00:21:34.108Z,100.00
2023-09-06T00:24:05.086Z,100.00
2023-09-06T00:26:35.556Z,100.00
2023-09-06T00:29:08.120Z,100.00
2023-09-06T00:31:38.474Z,100.00
2023-09-06T00:34:10.048Z,100.00
2023-09-06T00:36:41.374Z,100.00
2023-09-06T00:39:12.177Z,100.00
2023-09-06T00:41:43.777Z,100.00
2023-09-06T00:44:13.872Z,100.00
2023-09-06T00:46:43.535Z,100.00
2023-09-06T00:49:13.904Z,100.00
2023-09-06T00:51:45.361Z,100.00
2023-09-06T00:54:16.241Z,100.00
2023-09-06T00:56:45.929Z,100.00
2023-09-06T00:59:17.860Z,100.00
2023-09-06T01:01:48.231Z,100.00
2023-09-06T01:04:18.355Z,100.00
2023-09-06T01:06:56.742Z,100.00
2023-09-06T01:09:26.838Z,100.00
2023-09-06T01:11:56.755Z,100.00
2023-09-06T01:14:26.881Z,100.00
2023-09-06T01:16:57.773Z,100.00
2023-09-06T01:19:34.988Z,100.00
2023-09-06T01:22:19.929Z,100.00
2023-09-06T01:24:53.283Z,100.00
2023-09-06T01:27:23.502Z,100.00
2023-09-06T01:29:53.266Z,100.00
2023-09-06T01:32:23.237Z,100.00
2023-09-06T01:34:54.295Z,100.00
2023-09-06T01:37:23.790Z,100.00
2023-09-06T01:39:55.742Z,100.00
2023-09-06T01:42:25.786Z,100.00
2023-09-06T01:44:55.287Z,100.00
2023-09-06T01:47:25.826Z,100.00
2023-09-06T01:49:54.711Z,100.00
2023-09-06T01:52:25.237Z,100.00
2023-09-06T01:54:58.334Z,100.00
2023-09-06T01:57:27.334Z,100.00
2023-09-06T01:59:56.890Z,100.00
2023-09-06T02:02:26.997Z,100.00
2023-09-06T02:04:58.256Z,100.00
2023-09-06T02:07:27.805Z,100.00
2023-09-06T02:09:59.252Z,100.00
2023-09-06T02:12:29.964Z,100.00
2023-09-06T02:14:59.067Z,100.00
2023-09-06T02:17:28.042Z,100.00
2023-09-06T02:19:58.087Z,100.00
2023-09-06T02:22:28.568Z,100.00
2023-09-06T02:25:01.136Z,100.00
2023-09-06T02:27:33.523Z,100.00
2023-09-06T02:30:03.406Z,100.00
2023-09-06T02:32:33.430Z,100.00
2023-09-06T02:35:03.131Z,100.00
2023-09-06T02:37:33.190Z,100.00
2023-09-06T02:40:08.023Z,100.00
2023-09-06T02:42:39.949Z,100.00
2023-09-06T02:45:12.265Z,100.00
2023-09-06T02:47:50.300Z,100.00
2023-09-06T02:50:24.825Z,100.00
2023-09-06T02:52:57.720Z,100.00
2023-09-06T02:55:28.536Z,100.00
2023-09-06T02:57:58.761Z,100.00
2023-09-06T03:00:30.977Z,100.00
2023-09-06T03:03:07.436Z,100.00
2023-09-06T03:05:43.430Z,100.00
2023-09-06T03:08:15.028Z,100.00
2023-09-06T03:10:46.396Z,100.00
2023-09-06T03:13:16.820Z,100.00
2023-09-06T03:15:47.598Z,100.00
2023-09-06T03:18:21.326Z,100.00
2023-09-06T03:20:56.874Z,100.00
2023-09-06T03:23:28.732Z,100.00
2023-09-06T03:26:00.705Z,100.00
2023-09-06T03:28:31.686Z,100.00
2023-09-06T03:31:02.028Z,100.00
2023-09-06T03:33:33.068Z,100.00
2023-09-06T03:36:08.799Z,100.00
2023-09-06T03:38:39.238Z,100.00
2023-09-06T03:41:11.698Z,100.00
2023-09-06T03:43:42.471Z,100.00
2023-09-06T03:46:14.341Z,100.00
2023-09-06T03:48:47.727Z,100.00
2023-09-06T03:51:19.148Z,100.00
2023-09-06T03:53:49.919Z,100.00
2023-09-06T03:56:21.379Z,100.00
2023-09-06T03:58:50.931Z,100.00
2023-09-06T04:01:20.586Z,100.00
2023-09-06T04:03:51.966Z,100.00
2023-09-06T04:06:21.698Z,100.00
2023-09-06T04:08:52.166Z,100.00
2023-09-06T04:11:24.784Z,100.00
2023-09-06T04:13:56.999Z,100.00
2023-09-06T04:16:28.594Z,100.00
2023-09-06T04:18:58.985Z,100.00
2023-09-06T04:21:29.596Z,100.00
2023-09-06T04:24:00.202Z,100.00
2023-09-06T04:26:31.825Z,100.00
2023-09-06T04:29:01.448Z,100.00
2023-09-06T04:31:33.980Z,100.00
2023-09-06T04:34:06.648Z,100.00
2023-09-06T04:36:41.181Z,100.00
2023-09-06T04:39:11.169Z,100.00
2023-09-06T04:41:45.050Z,100.00
2023-09-06T04:44:17.363Z,100.00
2023-09-06T04:46:47.804Z,100.00
2023-09-06T04:49:18.511Z,100.00
2023-09-06T04:51:54.529Z,100.00
2023-09-06T04:54:26.057Z,100.00
2023-09-06T04:57:07.263Z,100.00
2023-09-06T04:59:38.666Z,100.00
2023-09-06T05:02:10.347Z,100.00
2023-09-06T05:04:40.436Z,100.00
2023-09-06T05:07:10.938Z,100.00
2023-09-06T05:09:41.158Z,100.00
2023-09-06T05:12:12.433Z,100.00
2023-09-06T05:14:42.662Z,100.00
2023-09-06T05:17:14.605Z,100.00
2023-09-06T05:19:43.907Z,100.00
2023-09-06T05:22:13.113Z,100.00
2023-09-06T05:24:42.760Z,100.00
2023-09-06T05:27:19.367Z,100.00
2023-09-06T05:29:51.437Z,100.00
2023-09-06T05:32:21.504Z,100.00
2023-09-06T05:34:53.822Z,100.00
2023-09-06T05:37:25.735Z,100.00
2023-09-06T05:39:55.506Z,100.00
2023-09-06T05:42:26.578Z,100.00
2023-09-06T05:44:56.155Z,100.00
2023-09-06T05:47:25.904Z,100.00
2023-09-06T05:49:59.138Z,100.00
2023-09-06T05:52:29.803Z,100.00
2023-09-06T05:55:00.416Z,100.00
2023-09-06T05:57:31.245Z,100.00
2023-09-06T06:00:03.350Z,100.00
2023-09-06T06:02:34.148Z,100.00
2023-09-06T06:05:04.708Z,100.00
2023-09-06T06:07:35.795Z,100.00
2023-09-06T06:10:06.749Z,100.00
2023-09-06T06:12:40.260Z,100.00
2023-09-06T06:15:15.399Z,100.00
2023-09-06T06:17:47.121Z,100.00
2023-09-06T06:20:27.702Z,100.00
2023-09-06T06:23:01.116Z,100.00
2023-09-06T06:25:31.211Z,100.00
2023-09-06T06:28:03.898Z,100.00
2023-09-06T06:30:35.447Z,100.00
2023-09-06T06:33:08.737Z,100.00
2023-09-06T06:35:41.258Z,100.00
2023-09-06T06:38:16.063Z,100.00
2023-09-06T06:40:46.564Z,100.00
2023-09-06T06:43:18.712Z,100.00
2023-09-06T06:45:50.299Z,100.00
2023-09-06T06:48:21.218Z,100.00
2023-09-06T06:50:51.779Z,100.00
2023-09-06T06:53:23.337Z,100.00
2023-09-06T06:55:55.565Z,100.00
2023-09-06T06:58:28.223Z,100.00
2023-09-06T07:00:58.280Z,100.00
2023-09-06T07:03:28.510Z,100.00
2023-09-06T07:05:59.500Z,100.00
2023-09-06T07:08:31.363Z,100.00
2023-09-06T07:11:01.170Z,100.00
2023-09-06T07:13:32.836Z,100.00
2023-09-06T07:16:02.549Z,100.00
2023-09-06T07:18:32.951Z,100.00
2023-09-06T07:21:03.196Z,100.00
2023-09-06T07:23:34.293Z,100.00
2023-09-06T07:26:03.503Z,100.00
2023-09-06T07:28:41.334Z,100.00
2023-09-06T07:31:10.505Z,100.00
2023-09-06T07:33:40.464Z,100.00
2023-09-06T07:36:12.867Z,100.00
2023-09-06T07:38:42.487Z,100.00
2023-09-06T07:41:13.199Z,100.00
2023-09-06T07:43:45.232Z,100.00
2023-09-06T07:46:15.519Z,100.00
2023-09-06T07:48:46.278Z,100.00
2023-09-06T07:51:15.923Z,100.00
2023-09-06T07:53:47.088Z,100.00
2023-09-06T07:56:16.125Z,100.00
2023-09-06T07:58:47.576Z,100.00
2023-09-06T08:01:19.515Z,100.00
2023-09-06T08:03:49.352Z,100.00
2023-09-06T08:06:18.767Z,100.00
2023-09-06T08:08:48.470Z,100.00
2023-09-06T08:11:20.057Z,100.00
2023-09-06T08:13:51.085Z,100.00
2023-09-06T08:16:22.132Z,100.00
2023-09-06T08:18:51.524Z,100.00
2023-09-06T08:21:22.494Z,100.00
2023-09-06T08:23:53.144Z,100.00
2023-09-06T08:26:22.265Z,100.00
2023-09-06T08:28:54.456Z,100.00
2023-09-06T08:31:24.065Z,100.00
2023-09-06T08:33:53.947Z,100.00
2023-09-06T08:36:24.315Z,100.00
2023-09-06T08:38:53.868Z,100.00
2023-09-06T08:41:23.664Z,100.00
2023-09-06T08:43:56.370Z,100.00
2023-09-06T08:46:31.938Z,100.00
2023-09-06T08:49:05.928Z,100.00
2023-09-06T08:51:37.558Z,100.00
2023-09-06T08:54:11.004Z,100.00
2023-09-06T08:56:39.507Z,100.00
2023-09-06T08:59:11.774Z,100.00
2023-09-06T09:01:40.948Z,100.00
2023-09-06T09:04:10.827Z,100.00
2023-09-06T09:06:44.709Z,100.00
2023-09-06T09:09:18.471Z,100.00
2023-09-06T09:11:51.350Z,100.00
2023-09-06T09:14:23.876Z,100.00
2023-09-06T09:16:58.075Z,100.00
2023-09-06T09:19:28.754Z,100.00
2023-09-06T09:21:58.551Z,100.00
2023-09-06T09:24:30.653Z,100.00
2023-09-06T09:27:00.252Z,100.00
2023-09-06T09:29:31.671Z,100.00
2023-09-06T09:32:06.038Z,100.00
2023-09-06T09:34:36.233Z,100.00
2023-09-06T09:37:07.147Z,100.00
2023-09-06T09:39:36.858Z,100.00
2023-09-06T09:42:11.294Z,100.00
2023-09-06T09:44:42.815Z,100.00
2023-09-06T09:47:43.246Z,100.00
2023-09-06T09:50:09.045Z,100.00
2023-09-06T09:52:40.457Z,100.00
2023-09-06T09:55:13.173Z,100.00
2023-09-06T09:57:45.535Z,100.00
2023-09-06T10:00:28.899Z,100.00
2023-09-06T10:03:00.962Z,100.00
2023-09-06T10:05:33.773Z,100.00
2023-09-06T10:08:07.346Z,100.00
2023-09-06T10:10:40.954Z,100.00
2023-09-06T10:13:11.752Z,100.00
2023-09-06T10:15:44.420Z,100.00
2023-09-06T10:18:14.357Z,100.00
2023-09-06T10:20:44.074Z,100.00
2023-09-06T10:23:13.974Z,100.00
2023-09-06T10:25:45.317Z,100.00
2023-09-06T10:28:17.817Z,100.00
2023-09-06T10:31:03.720Z,100.00
2023-09-06T10:34:16.753Z,100.00
2023-09-06T10:36:54.872Z,100.00
2023-09-06T10:39:27.714Z,100.00
2023-09-06T10:42:31.749Z,100.00
2023-09-06T10:45:14.823Z,100.00
2023-09-06T10:47:46.485Z,100.00
2023-09-06T10:50:21.289Z,100.00
2023-09-06T10:52:55.997Z,100.00
2023-09-06T10:55:29.814Z,100.00
2023-09-06T10:58:09.450Z,100.00
2023-09-06T11:00:40.713Z,100.00
2023-09-06T11:03:23.581Z,100.00
2023-09-06T11:06:00.233Z,100.00
2023-09-06T11:08:33.101Z,100.00
2023-09-06T11:11:27.061Z,100.00
2023-09-06T11:13:59.264Z,100.00
2023-09-06T11:16:29.319Z,100.00
2023-09-06T11:19:00.246Z,100.00
2023-09-06T11:21:30.303Z,100.00
2023-09-06T11:24:01.021Z,100.00
2023-09-06T11:26:37.753Z,100.00
2023-09-06T11:29:07.377Z,100.00
2023-09-06T11:31:37.110Z,100.00
2023-09-06T11:34:12.654Z,100.00
2023-09-06T11:36:43.950Z,100.00
2023-09-06T11:39:20.133Z,100.00
2023-09-06T11:41:50.314Z,100.00
2023-09-06T11:44:20.717Z,100.00
2023-09-06T11:46:51.403Z,100.00
2023-09-06T11:49:25.286Z,100.00
2023-09-06T11:51:55.476Z,100.00
2023-09-06T11:54:28.816Z,100.00
2023-09-06T11:56:59.527Z,100.00
2023-09-06T11:59:34.081Z,100.00
2023-09-06T12:02:07.249Z,100.00
2023-09-06T12:04:39.207Z,100.00
2023-09-06T12:07:09.861Z,100.00
2023-09-06T12:09:40.249Z,100.00
2023-09-06T12:12:09.769Z,100.00
2023-09-06T12:14:39.225Z,99.69
2023-09-06T12:17:09.509Z,100.00
2023-09-06T12:19:40.116Z,100.00
2023-09-06T12:22:11.559Z,96.66
2023-09-06T12:24:42.122Z,95.52
2023-09-06T12:27:12.962Z,96.77
2023-09-06T12:29:43.170Z,93.87
2023-09-06T12:32:13.256Z,87.04
2023-09-06T12:34:44.069Z,88.38
2023-09-06T12:37:13.396Z,90.62
2023-09-06T12:39:43.735Z,93.93
2023-09-06T12:42:13.347Z,91.65
2023-09-06T12:44:43.524Z,89.31
2023-09-06T12:47:12.758Z,86.13
2023-09-06T12:49:43.627Z,85.20
2023-09-06T12:52:17.266Z,85.39
2023-09-06T12:54:46.673Z,87.53
2023-09-06T12:57:18.527Z,87.80
2023-09-06T12:59:49.199Z,85.95
2023-09-06T13:02:19.118Z,84.70
2023-09-06T13:04:51.113Z,83.23
2023-09-06T13:07:21.272Z,85.62
2023-09-06T13:09:50.580Z,84.40
2023-09-06T13:12:19.519Z,82.87
2023-09-06T13:14:48.471Z,83.65
2023-09-06T13:17:17.960Z,83.85
2023-09-06T13:19:46.837Z,81.63
2023-09-06T13:22:18.230Z,81.39
2023-09-06T13:24:47.193Z,81.54
2023-09-06T13:27:17.082Z,81.71
2023-09-06T13:29:46.618Z,82.77
2023-09-06T13:32:16.185Z,84.28
2023-09-06T13:34:47.587Z,84.84
2023-09-06T13:37:20.206Z,84.51
2023-09-06T13:39:51.358Z,80.18
2023-09-06T13:42:21.064Z,81.27
2023-09-06T13:44:51.611Z,80.62
2023-09-06T13:47:21.243Z,82.74
2023-09-06T13:49:52.308Z,81.48
2023-09-06T13:52:23.604Z,75.11
2023-09-06T13:54:53.689Z,69.67
2023-09-06T13:57:25.720Z,65.25
2023-09-06T13:59:56.738Z,61.77
2023-09-06T14:02:27.826Z,61.58
2023-09-06T14:04:58.956Z,60.66
2023-09-06T14:07:30.754Z,61.89
2023-09-06T14:10:01.537Z,63.22
2023-09-06T14:12:32.060Z,62.56
2023-09-06T14:15:02.636Z,62.14
2023-09-06T14:17:32.953Z,61.93
2023-09-06T14:20:01.323Z,61.67
2023-09-06T14:22:31.759Z,62.42
2023-09-06T14:25:00.681Z,63.63
2023-09-06T14:27:29.356Z,61.94
2023-09-06T14:30:01.355Z,61.08
2023-09-06T14:32:30.915Z,62.64
2023-09-06T14:35:01.256Z,63.52
2023-09-06T14:37:32.722Z,64.86
2023-09-06T14:40:02.502Z,63.17
2023-09-06T14:42:34.305Z,63.00
2023-09-06T14:45:03.851Z,62.23
2023-09-06T14:47:33.922Z,62.56
2023-09-06T14:50:04.011Z,63.10
2023-09-06T14:52:34.472Z,63.15
2023-09-06T14:55:04.206Z,60.54
2023-09-06T14:57:33.673Z,60.69
2023-09-06T15:00:05.431Z,59.00
2023-09-06T15:02:36.180Z,59.28
2023-09-06T15:05:05.985Z,58.09
2023-09-06T15:07:36.077Z,57.83
2023-09-06T15:10:07.880Z,59.28
2023-09-06T15:12:37.362Z,60.43
2023-09-06T15:15:08.853Z,59.88
2023-09-06T15:17:38.934Z,58.39
2023-09-06T15:20:12.285Z,58.00
2023-09-06T15:22:42.888Z,57.75
2023-09-06T15:25:13.918Z,56.16
2023-09-06T15:27:43.651Z,56.74
2023-09-06T15:30:13.001Z,57.41
2023-09-06T15:32:44.144Z,56.39
2023-09-06T15:35:15.016Z,58.29
2023-09-06T15:38:01.578Z,56.21
2023-09-06T15:40:31.182Z,57.27
2023-09-06T15:43:01.305Z,56.74
2023-09-06T15:45:30.908Z,57.47
2023-09-06T15:48:01.750Z,56.84
2023-09-06T15:50:31.827Z,57.26
2023-09-06T15:53:02.150Z,57.61
2023-09-06T15:55:33.709Z,56.50
2023-09-06T15:58:05.068Z,57.46
2023-09-06T16:00:33.606Z,57.19
2023-09-06T16:03:03.604Z,58.35
2023-09-06T16:05:32.831Z,57.99
2023-09-06T16:08:04.572Z,57.23
2023-09-06T16:10:34.460Z,57.95
2023-09-06T16:13:04.201Z,58.21
2023-09-06T16:15:34.022Z,58.16
2023-09-06T16:18:02.979Z,59.13
2023-09-06T16:20:33.833Z,60.23
2023-09-06T16:23:05.700Z,61.14
2023-09-06T16:25:37.393Z,61.87
2023-09-06T16:28:07.956Z,62.03
2023-09-06T16:30:43.232Z,62.82
2023-09-06T16:33:13.830Z,63.14
2023-09-06T16:35:43.338Z,63.55
2023-09-06T16:38:14.217Z,63.92
2023-09-06T16:40:44.026Z,64.40
2023-09-06T16:43:13.931Z,65.13
2023-09-06T16:45:42.696Z,66.48
2023-09-06T16:48:12.101Z,66.26
2023-09-06T16:50:43.536Z,66.19
2023-09-06T16:53:14.521Z,66.66
2023-09-06T16:55:44.630Z,67.37
2023-09-06T16:58:14.411Z,70.38
2023-09-06T17:00:44.234Z,72.25
2023-09-06T17:03:14.792Z,73.22
2023-09-06T17:05:43.415Z,74.84
2023-09-06T17:08:13.960Z,75.80
2023-09-06T17:10:42.393Z,76.26
2023-09-06T17:13:12.314Z,75.87
2023-09-06T17:15:42.976Z,76.85
2023-09-06T17:18:13.664Z,77.59
2023-09-06T17:20:43.824Z,78.34
2023-09-06T17:23:17.309Z,79.68
2023-09-06T17:25:51.051Z,81.33
2023-09-06T17:28:21.198Z,82.17
2023-09-06T17:30:52.891Z,83.17
2023-09-06T17:33:25.512Z,83.78
2023-09-06T17:35:55.055Z,84.39
2023-09-06T17:38:25.992Z,86.65
2023-09-06T17:40:55.138Z,87.46
2023-09-06T17:43:26.659Z,88.52
2023-09-06T17:46:00.041Z,90.43
2023-09-06T17:48:30.657Z,90.99
2023-09-06T17:51:08.779Z,92.47
2023-09-06T17:53:41.764Z,93.21
2023-09-06T17:56:14.344Z,94.04
2023-09-06T17:58:45.060Z,94.30
2023-09-06T18:01:16.173Z,94.44
2023-09-06T18:03:53.626Z,95.36
2023-09-06T18:06:26.231Z,96.47
2023-09-06T18:08:59.037Z,97.00
2023-09-06T18:11:27.780Z,97.24
2023-09-06T18:13:56.847Z,98.29
2023-09-06T18:16:26.579Z,98.98
2023-09-06T18:18:56.079Z,99.84
2023-09-06T18:21:27.031Z,100.00
2023-09-06T18:24:04.385Z,100.00
2023-09-06T18:26:33.778Z,100.00
2023-09-06T18:29:03.447Z,100.00
2023-09-06T18:31:33.506Z,100.00
2023-09-06T18:34:03.006Z,100.00
2023-09-06T18:36:33.469Z,100.00
2023-09-06T18:39:04.193Z,100.00
2023-09-06T18:41:33.620Z,100.00
2023-09-06T18:44:02.641Z,100.00
2023-09-06T18:46:33.648Z,100.00
2023-09-06T18:49:08.212Z,100.00
2023-09-06T18:51:38.577Z,100.00
2023-09-06T18:54:08.902Z,100.00
2023-09-06T18:56:37.311Z,100.00
2023-09-06T18:59:08.741Z,100.00
2023-09-06T19:01:37.926Z,100.00
2023-09-06T19:04:07.612Z,100.00
2023-09-06T19:06:37.225Z,100.00
2023-09-06T19:09:09.586Z,100.00
2023-09-06T19:11:39.742Z,100.00
2023-09-06T19:14:10.104Z,100.00
2023-09-06T19:16:40.227Z,100.00
2023-09-06T19:19:08.792Z,100.00
2023-09-06T19:21:37.335Z,100.00
2023-09-06T19:24:08.414Z,100.00
2023-09-06T19:26:37.368Z,100.00
2023-09-06T19:29:07.683Z,100.00
2023-09-06T19:31:36.700Z,100.00
2023-09-06T19:34:06.187Z,100.00
2023-09-06T19:36:36.405Z,100.00
2023-09-06T19:39:05.989Z,100.00
2023-09-06T19:41:37.358Z,100.00
2023-09-06T19:44:08.364Z,100.00
2023-09-06T19:46:38.028Z,100.00
2023-09-06T19:49:07.867Z,100.00
2023-09-06T19:51:40.570Z,100.00
2023-09-06T19:54:10.458Z,100.00
2023-09-06T19:56:41.881Z,100.00
2023-09-06T19:59:10.994Z,100.00
2023-09-06T20:01:41.098Z,100.00
2023-09-06T20:04:10.835Z,100.00
2023-09-06T20:06:40.291Z,100.00
2023-09-06T20:09:10.779Z,100.00
2023-09-06T20:11:41.996Z,100.00
2023-09-06T20:14:13.479Z,100.00
2023-09-06T20:16:42.737Z,100.00
2023-09-06T20:19:12.794Z,100.00
2023-09-06T20:21:43.333Z,100.00
2023-09-06T20:24:12.413Z,100.00
2023-09-06T20:26:43.438Z,100.00
2023-09-06T20:29:13.015Z,100.00
2023-09-06T20:31:44.289Z,100.00
2023-09-06T20:34:14.493Z,100.00
2023-09-06T20:36:45.621Z,100.00
2023-09-06T20:39:15.173Z,100.00
2023-09-06T20:41:47.941Z,100.00
2023-09-06T20:44:17.494Z,100.00
2023-09-06T20:46:47.196Z,100.00
2023-09-06T20:49:18.365Z,100.00
2023-09-06T20:51:49.891Z,100.00
2023-09-06T20:54:19.338Z,100.00
2023-09-06T20:56:50.777Z,100.00
2023-09-06T20:59:20.436Z,100.00
2023-09-06T21:01:49.954Z,100.00
2023-09-06T21:04:19.613Z,100.00
2023-09-06T21:06:50.071Z,100.00
2023-09-06T21:09:20.715Z,100.00
2023-09-06T21:11:52.546Z,100.00
2023-09-06T21:14:21.003Z,100.00
2023-09-06T21:16:50.871Z,100.00
2023-09-06T21:19:20.766Z,100.00
2023-09-06T21:21:49.828Z,100.00
2023-09-06T21:24:20.002Z,100.00
2023-09-06T21:26:51.617Z,100.00
2023-09-06T21:29:27.951Z,100.00
2023-09-06T21:31:58.293Z,100.00
2023-09-06T21:34:28.595Z,100.00
2023-09-06T21:36:57.797Z,100.00
2023-09-06T21:39:27.739Z,100.00
2023-09-06T21:41:59.401Z,100.00
2023-09-06T21:44:29.508Z,100.00
2023-09-06T21:46:58.511Z,100.00
2023-09-06T21:49:29.401Z,100.00
2023-09-06T21:52:00.488Z,100.00
2023-09-06T21:54:30.029Z,100.00
2023-09-06T21:57:01.625Z,100.00
2023-09-06T21:59:31.361Z,100.00
2023-09-06T22:02:01.507Z,100.00
2023-09-06T22:04:31.247Z,100.00
2023-09-06T22:07:01.435Z,100.00
2023-09-06T22:09:31.461Z,100.00
2023-09-06T22:12:01.607Z,100.00
2023-09-06T22:14:31.812Z,100.00
2023-09-06T22:17:01.838Z,100.00
2023-09-06T22:19:32.721Z,100.00
2023-09-06T22:22:03.489Z,100.00
2023-09-06T22:24:33.184Z,100.00
2023-09-06T22:27:04.791Z,100.00
2023-09-06T22:29:33.877Z,100.00
2023-09-06T22:32:04.034Z,100.00
2023-09-06T22:34:36.288Z,100.00
2023-09-06T22:37:06.694Z,100.00
2023-09-06T22:39:36.348Z,100.00
2023-09-06T22:42:09.952Z,100.00
2023-09-06T22:44:39.983Z,100.00
2023-09-06T22:47:10.794Z,100.00
2023-09-06T22:49:42.149Z,100.00
2023-09-06T22:52:12.507Z,100.00
2023-09-06T22:54:43.365Z,100.00
2023-09-06T22:57:15.724Z,100.00
2023-09-06T22:59:45.641Z,100.00
2023-09-06T23:02:14.670Z,100.00
2023-09-06T23:04:45.013Z,100.00
2023-09-06T23:07:14.810Z,100.00
2023-09-06T23:09:46.116Z,100.00
2023-09-06T23:12:17.498Z,100.00
2023-09-06T23:14:49.977Z,100.00
2023-09-06T23:17:24.968Z,100.00
2023-09-06T23:19:56.127Z,100.00
2023-09-06T23:22:26.369Z,100.00
2023-09-06T23:24:58.720Z,100.00
2023-09-06T23:27:31.609Z,100.00
2023-09-06T23:30:09.592Z,100.00
2023-09-06T23:32:41.035Z,100.00
2023-09-06T23:35:12.203Z,100.00
2023-09-06T23:37:42.191Z,100.00
2023-09-06T23:40:21.642Z,100.00
2023-09-06T23:42:55.250Z,100.00
2023-09-06T23:45:25.420Z,100.00
2023-09-06T23:48:00.693Z,100.00
2023-09-06T23:50:32.637Z,100.00
2023-09-06T23:53:02.146Z,100.00
2023-09-06T23:55:33.410Z,100.00
2023-09-06T23:58:05.473Z,100.00
